createdAt,value
2023-03-31T00:00:57.976Z,2.40
2023-03-31T00:03:30.244Z,7.27
2023-03-31T00:06:02.220Z,2.43
2023-03-31T00:08:37.390Z,2.20
2023-03-31T00:11:09.219Z,2.57
2023-03-31T00:13:40.991Z,2.40
2023-03-31T00:16:13.142Z,2.47
2023-03-31T00:18:47.312Z,3.00
2023-03-31T00:21:28.885Z,4.07
2023-03-31T00:24:06.874Z,2.47
2023-03-31T00:26:39.006Z,2.30
2023-03-31T00:29:13.093Z,3.07
2023-03-31T00:31:44.853Z,4.10
2023-03-31T00:34:16.779Z,3.53
2023-03-31T00:36:48.529Z,2.60
2023-03-31T00:39:20.504Z,4.70
2023-03-31T00:41:52.241Z,5.33
2023-03-31T00:44:29.234Z,4.30
2023-03-31T00:47:09.790Z,3.07
2023-03-31T00:49:45.735Z,6.87
2023-03-31T00:52:28.011Z,3.93
2023-03-31T00:55:04.390Z,3.70
2023-03-31T00:57:40.115Z,2.47
2023-03-31T01:00:16.368Z,2.53
2023-03-31T01:02:56.140Z,5.37
2023-03-31T01:05:42.190Z,3.13
2023-03-31T01:08:16.243Z,3.13
2023-03-31T01:10:54.513Z,3.50
2023-03-31T01:13:27.566Z,3.20
2023-03-31T01:15:59.432Z,3.40
2023-03-31T01:18:34.993Z,3.30
2023-03-31T01:21:19.999Z,6.57
2023-03-31T01:24:16.020Z,5.83
2023-03-31T01:27:24.086Z,8.83
2023-03-31T01:30:14.347Z,2.47
2023-03-31T01:33:09.593Z,7.13
2023-03-31T01:35:44.348Z,2.17
2023-03-31T01:38:34.052Z,3.43
2023-03-31T01:41:33.573Z,5.97
2023-03-31T01:44:26.920Z,3.03
2023-03-31T01:47:05.160Z,2.77
2023-03-31T01:49:50.776Z,3.27
2023-03-31T01:52:28.179Z,2.57
2023-03-31T01:55:20.799Z,3.23
2023-03-31T01:58:00.233Z,2.13
2023-03-31T02:00:38.041Z,3.23
2023-03-31T02:03:19.278Z,2.57
2023-03-31T02:05:55.569Z,3.20
2023-03-31T02:08:37.281Z,3.23
2023-03-31T02:11:09.935Z,2.50
2023-03-31T02:13:45.499Z,2.93
2023-03-31T02:16:24.340Z,2.53
2023-03-31T02:19:02.536Z,2.70
2023-03-31T02:21:38.756Z,6.73
2023-03-31T02:24:13.779Z,3.47
2023-03-31T02:27:11.457Z,2.83
2023-03-31T02:29:43.318Z,5.00
2023-03-31T02:32:38.268Z,6.77
2023-03-31T02:35:16.499Z,4.27
2023-03-31T02:37:49.747Z,2.83
2023-03-31T02:40:23.008Z,3.83
2023-03-31T02:42:54.829Z,3.27
2023-03-31T02:45:51.078Z,6.60
2023-03-31T02:48:27.393Z,2.83
2023-03-31T02:51:09.030Z,10.53
2023-03-31T02:53:58.063Z,3.07
2023-03-31T02:57:16.735Z,4.40
2023-03-31T03:00:13.980Z,2.80
2023-03-31T03:03:16.317Z,4.90
2023-03-31T03:06:15.567Z,3.17
2023-03-31T03:09:18.383Z,3.63
2023-03-31T03:12:00.248Z,5.73
2023-03-31T03:14:37.873Z,3.13
2023-03-31T03:17:21.648Z,4.73
2023-03-31T03:19:56.136Z,3.47
2023-03-31T03:22:28.041Z,4.77
2023-03-31T03:24:59.821Z,3.50
2023-03-31T03:27:32.737Z,4.67
2023-03-31T03:30:06.685Z,5.57
2023-03-31T03:32:38.659Z,10.57
2023-03-31T03:35:11.134Z,7.57
2023-03-31T03:37:42.871Z,3.40
2023-03-31T03:40:15.449Z,4.07
2023-03-31T03:42:47.270Z,4.47
2023-03-31T03:45:18.997Z,3.77
2023-03-31T03:47:51.044Z,5.10
2023-03-31T03:50:22.752Z,4.23
2023-03-31T03:52:54.557Z,4.37
2023-03-31T03:55:26.395Z,6.60
2023-03-31T03:57:58.157Z,4.93
2023-03-31T04:00:29.840Z,5.77
2023-03-31T04:03:01.813Z,4.17
2023-03-31T04:05:33.599Z,5.57
2023-03-31T04:08:06.213Z,6.50
2023-03-31T04:10:37.963Z,4.40
2023-03-31T04:13:09.695Z,4.37
2023-03-31T04:15:41.507Z,5.13
2023-03-31T04:18:23.064Z,5.07
2023-03-31T04:21:04.035Z,5.17
2023-03-31T04:23:38.464Z,5.47
2023-03-31T04:26:10.414Z,5.33
2023-03-31T04:28:46.686Z,6.60
2023-03-31T04:31:25.384Z,9.00
2023-03-31T04:34:02.299Z,9.47
2023-03-31T04:36:34.326Z,5.10
2023-03-31T04:39:06.068Z,5.50
2023-03-31T04:41:37.809Z,8.60
2023-03-31T04:44:09.614Z,8.57
2023-03-31T04:46:41.342Z,8.03
2023-03-31T04:49:13.189Z,9.10
2023-03-31T04:51:44.984Z,7.70
2023-03-31T04:54:17.180Z,5.70
2023-03-31T04:56:48.932Z,8.90
2023-03-31T04:59:20.765Z,5.30
2023-03-31T05:01:52.519Z,5.47
2023-03-31T05:04:24.368Z,13.07
2023-03-31T05:06:56.487Z,8.50
2023-03-31T05:09:28.263Z,10.87
2023-03-31T05:11:59.924Z,8.17
2023-03-31T05:14:31.651Z,6.40
2023-03-31T05:17:03.424Z,6.23
2023-03-31T05:19:35.390Z,6.93
2023-03-31T05:22:07.095Z,6.13
2023-03-31T05:24:38.855Z,5.50
2023-03-31T05:27:10.572Z,5.77
2023-03-31T05:29:42.386Z,9.10
2023-03-31T05:32:14.137Z,11.73
2023-03-31T05:34:46.236Z,5.93
2023-03-31T05:37:21.052Z,10.03
2023-03-31T05:39:53.355Z,6.80
2023-03-31T05:42:25.159Z,6.07
2023-03-31T05:44:57.310Z,8.10
2023-03-31T05:47:29.059Z,10.20
2023-03-31T05:50:01.064Z,6.07
2023-03-31T05:52:33.039Z,5.47
2023-03-31T05:55:05.028Z,10.47
2023-03-31T05:57:36.718Z,7.93
2023-03-31T06:00:11.268Z,9.10
2023-03-31T06:02:43.178Z,8.30
2023-03-31T06:05:14.976Z,6.47
2023-03-31T06:07:46.695Z,5.23
2023-03-31T06:10:18.464Z,8.23
2023-03-31T06:12:50.133Z,5.43
2023-03-31T06:15:21.858Z,7.33
2023-03-31T06:17:53.651Z,7.30
2023-03-31T06:20:30.141Z,5.87
2023-03-31T06:23:01.853Z,7.37
2023-03-31T06:25:43.821Z,7.73
2023-03-31T06:28:22.058Z,4.80
2023-03-31T06:31:07.349Z,6.13
2023-03-31T06:33:41.195Z,5.23
2023-03-31T06:36:15.726Z,9.30
2023-03-31T06:38:48.153Z,9.80
2023-03-31T06:41:21.124Z,5.60
2023-03-31T06:43:52.877Z,8.80
2023-03-31T06:46:25.081Z,10.80
2023-03-31T06:48:56.827Z,5.33
2023-03-31T06:51:30.599Z,5.87
2023-03-31T06:54:03.532Z,7.40
2023-03-31T06:56:35.496Z,8.90
2023-03-31T06:59:07.217Z,7.93
2023-03-31T07:01:39.225Z,8.30
2023-03-31T07:04:11.078Z,5.17
2023-03-31T07:06:42.756Z,9.27
2023-03-31T07:09:14.456Z,8.97
2023-03-31T07:11:46.138Z,5.70
2023-03-31T07:14:17.959Z,5.60
2023-03-31T07:16:50.729Z,8.03
2023-03-31T07:19:22.921Z,7.07
2023-03-31T07:21:56.535Z,6.37
2023-03-31T07:24:28.417Z,5.57
2023-03-31T07:27:00.373Z,6.53
2023-03-31T07:29:32.051Z,7.80
2023-03-31T07:32:03.992Z,5.20
2023-03-31T07:34:37.699Z,4.53
2023-03-31T07:37:09.605Z,7.03
2023-03-31T07:39:41.328Z,7.17
2023-03-31T07:42:13.099Z,4.87
2023-03-31T07:44:45.176Z,11.00
2023-03-31T07:47:16.899Z,6.83
2023-03-31T07:49:48.712Z,8.17
2023-03-31T07:52:20.615Z,9.17
2023-03-31T07:54:52.501Z,6.47
2023-03-31T07:57:24.300Z,5.20
2023-03-31T07:59:56.045Z,5.00
2023-03-31T08:02:28.046Z,5.40
2023-03-31T08:05:00.107Z,4.77
2023-03-31T08:07:37.872Z,6.13
2023-03-31T08:10:13.203Z,6.97
2023-03-31T08:12:45.037Z,7.03
2023-03-31T08:15:17.119Z,8.67
2023-03-31T08:17:48.846Z,14.00
2023-03-31T08:20:20.979Z,6.03
2023-03-31T08:22:52.781Z,6.53
2023-03-31T08:25:24.552Z,8.03
2023-03-31T08:27:56.927Z,9.23
2023-03-31T08:30:28.657Z,6.70
2023-03-31T08:33:00.481Z,6.47
2023-03-31T08:35:32.302Z,7.83
2023-03-31T08:38:04.723Z,5.97
2023-03-31T08:40:41.191Z,8.20
2023-03-31T08:43:22.386Z,8.30
2023-03-31T08:45:56.121Z,6.97
2023-03-31T08:48:38.838Z,5.63
2023-03-31T08:51:21.749Z,7.90
2023-03-31T08:54:08.029Z,12.17
2023-03-31T08:56:44.506Z,5.70
2023-03-31T08:59:27.345Z,6.50
2023-03-31T09:02:29.919Z,6.10
2023-03-31T09:05:25.733Z,6.23
2023-03-31T09:08:14.808Z,8.50
2023-03-31T09:10:56.502Z,8.53
2023-03-31T09:13:53.141Z,6.53
2023-03-31T09:16:33.640Z,6.80
2023-03-31T09:19:15.595Z,7.30
2023-03-31T09:21:51.923Z,5.97
2023-03-31T09:24:32.493Z,5.43
2023-03-31T09:27:08.568Z,5.87
2023-03-31T09:30:01.558Z,6.07
2023-03-31T09:32:33.780Z,5.77
2023-03-31T09:35:23.190Z,6.97
2023-03-31T09:37:55.470Z,5.23
2023-03-31T09:40:28.938Z,6.23
2023-03-31T09:43:07.357Z,5.03
2023-03-31T09:45:39.127Z,6.07
2023-03-31T09:48:23.609Z,7.23
2023-03-31T09:50:59.971Z,6.93
2023-03-31T09:53:35.186Z,5.40
2023-03-31T09:56:08.852Z,8.63
2023-03-31T09:58:42.809Z,6.00
2023-03-31T10:01:16.161Z,4.53
2023-03-31T10:03:53.889Z,5.43
2023-03-31T10:06:26.798Z,6.43
2023-03-31T10:09:02.159Z,7.07
2023-03-31T10:11:34.004Z,7.57
2023-03-31T10:14:13.308Z,9.13
2023-03-31T10:16:50.802Z,6.40
2023-03-31T10:19:32.633Z,6.87
2023-03-31T10:22:07.021Z,11.90
2023-03-31T10:24:46.535Z,6.67
2023-03-31T10:27:26.342Z,6.17
2023-03-31T10:30:00.817Z,13.47
2023-03-31T10:32:37.637Z,8.23
2023-03-31T10:35:29.916Z,6.83
2023-03-31T10:38:10.750Z,7.67
2023-03-31T10:40:52.484Z,8.30
2023-03-31T10:43:35.661Z,8.30
2023-03-31T10:46:08.247Z,6.03
2023-03-31T10:48:42.228Z,8.67
2023-03-31T10:51:19.239Z,7.33
2023-03-31T10:53:53.001Z,7.77
2023-03-31T10:56:42.293Z,2.50
2023-03-31T10:59:29.882Z,3.40
2023-03-31T11:02:32.499Z,5.13
2023-03-31T11:05:13.366Z,4.23
2023-03-31T11:07:52.498Z,2.07
2023-03-31T11:10:51.755Z,5.67
2023-03-31T11:13:23.415Z,4.80
2023-03-31T11:16:03.953Z,2.30
2023-03-31T11:18:39.942Z,3.57
2023-03-31T11:21:53.352Z,1.47
2023-03-31T11:24:49.164Z,2.43
2023-03-31T11:27:51.987Z,3.10
2023-03-31T11:30:40.424Z,1.47
2023-03-31T11:33:32.906Z,1.60
2023-03-31T11:36:16.991Z,3.13
2023-03-31T11:39:03.827Z,1.87
2023-03-31T11:41:46.881Z,3.90
2023-03-31T11:44:20.991Z,2.10
2023-03-31T11:46:56.657Z,4.17
2023-03-31T11:49:39.004Z,1.50
2023-03-31T11:52:27.000Z,2.67
2023-03-31T11:55:03.110Z,2.43
2023-03-31T11:58:03.965Z,1.40
2023-03-31T12:00:44.033Z,3.10
2023-03-31T12:03:31.535Z,2.07
2023-03-31T12:06:11.127Z,2.03
2023-03-31T12:09:04.487Z,2.70
2023-03-31T12:11:45.589Z,1.03
2023-03-31T12:14:40.233Z,3.10
2023-03-31T12:17:14.953Z,1.17
2023-03-31T12:19:52.033Z,1.50
2023-03-31T12:22:34.630Z,0.87
2023-03-31T12:25:13.496Z,2.17
2023-03-31T12:27:51.457Z,1.50
2023-03-31T12:30:34.487Z,2.67
2023-03-31T12:33:31.360Z,4.90
2023-03-31T12:36:12.618Z,0.90
2023-03-31T12:38:50.348Z,2.50
2023-03-31T12:42:05.298Z,6.80
2023-03-31T12:44:45.511Z,4.33
2023-03-31T12:47:28.588Z,1.47
2023-03-31T12:50:21.904Z,2.07
2023-03-31T12:53:39.397Z,3.10
2023-03-31T12:56:11.112Z,0.77
2023-03-31T12:58:44.890Z,2.30
2023-03-31T13:01:24.464Z,0.57
2023-03-31T13:04:19.931Z,0.80
2023-03-31T13:06:57.673Z,1.47
2023-03-31T13:09:41.966Z,1.17
2023-03-31T13:12:17.083Z,0.73
2023-03-31T13:14:53.784Z,0.40
2023-03-31T13:17:38.531Z,0.70
2023-03-31T13:20:35.744Z,0.70
2023-03-31T13:23:13.422Z,0.87
2023-03-31T13:25:53.227Z,1.13
2023-03-31T13:28:40.102Z,0.60
2023-03-31T13:31:14.535Z,0.87
2023-03-31T13:33:59.567Z,0.70
2023-03-31T13:36:34.312Z,2.40
2023-03-31T13:39:39.806Z,2.10
2023-03-31T13:42:45.513Z,1.03
2023-03-31T13:45:32.272Z,3.30
2023-03-31T13:48:26.227Z,1.00
2023-03-31T13:51:10.047Z,0.50
2023-03-31T13:54:06.695Z,0.33
2023-03-31T13:56:44.368Z,2.67
2023-03-31T13:59:33.946Z,0.10
2023-03-31T14:02:39.906Z,0.10
2023-03-31T14:05:35.404Z,0.17
2023-03-31T14:08:39.185Z,0.80
2023-03-31T14:11:16.990Z,0.33
2023-03-31T14:14:05.282Z,1.07
2023-03-31T14:16:40.459Z,0.20
2023-03-31T14:19:53.232Z,0.23
2023-03-31T14:23:08.877Z,0.33
2023-03-31T14:25:59.432Z,0.00
2023-03-31T14:28:58.047Z,3.47
2023-03-31T14:31:37.824Z,0.17
2023-03-31T14:34:37.115Z,0.30
2023-03-31T14:37:17.802Z,0.73
2023-03-31T14:39:58.143Z,1.07
2023-03-31T14:42:42.912Z,0.47
2023-03-31T14:45:24.973Z,0.60
2023-03-31T14:47:59.526Z,0.20
2023-03-31T14:50:35.015Z,1.60
2023-03-31T14:53:17.997Z,2.70
2023-03-31T14:55:58.768Z,0.73
2023-03-31T14:58:35.028Z,2.40
2023-03-31T15:01:09.751Z,2.03
2023-03-31T15:03:42.565Z,1.30
2023-03-31T15:06:15.887Z,1.03
2023-03-31T15:08:47.704Z,3.73
2023-03-31T15:11:21.921Z,1.40
2023-03-31T15:14:04.442Z,1.40
2023-03-31T15:16:45.163Z,2.67
2023-03-31T15:19:24.970Z,0.80
2023-03-31T15:22:01.929Z,0.20
2023-03-31T15:24:33.680Z,0.90
2023-03-31T15:27:20.586Z,0.60
2023-03-31T15:29:57.649Z,1.40
2023-03-31T15:32:32.625Z,1.33
2023-03-31T15:37:43.515Z,0.43
2023-03-31T15:40:26.267Z,0.90
2023-03-31T15:43:24.290Z,0.50
2023-03-31T15:45:58.595Z,0.57
2023-03-31T15:48:34.246Z,1.37
2023-03-31T15:51:14.767Z,1.63
2023-03-31T15:53:49.078Z,1.03
2023-03-31T15:56:51.188Z,2.13
2023-03-31T15:59:27.722Z,2.00
2023-03-31T16:02:10.956Z,2.37
2023-03-31T16:04:42.763Z,0.50
2023-03-31T16:07:22.706Z,1.87
2023-03-31T16:10:00.242Z,0.50
2023-03-31T16:12:43.870Z,0.83
2023-03-31T16:15:23.707Z,0.30
2023-03-31T16:18:02.152Z,2.13
2023-03-31T16:20:37.214Z,3.97
2023-03-31T16:23:18.747Z,1.57
2023-03-31T16:25:51.245Z,2.53
2023-03-31T16:28:28.930Z,0.97
2023-03-31T16:31:05.162Z,0.40
2023-03-31T16:33:54.743Z,6.40
2023-03-31T16:36:27.202Z,1.53
2023-03-31T16:39:01.895Z,3.10
2023-03-31T16:41:36.727Z,0.60
2023-03-31T16:44:08.491Z,2.83
2023-03-31T16:46:40.386Z,1.20
2023-03-31T16:49:12.314Z,2.47
2023-03-31T16:51:44.017Z,3.23
2023-03-31T16:54:16.084Z,1.30
2023-03-31T16:56:47.978Z,1.90
2023-03-31T16:59:19.767Z,2.67
2023-03-31T17:01:52.341Z,1.93
2023-03-31T17:04:24.140Z,2.27
2023-03-31T17:06:56.051Z,1.27
2023-03-31T17:09:28.591Z,1.30
2023-03-31T17:12:00.412Z,0.60
2023-03-31T17:14:32.118Z,1.57
2023-03-31T17:17:03.845Z,2.70
2023-03-31T17:19:35.561Z,0.90
2023-03-31T17:22:07.611Z,0.73
2023-03-31T17:24:39.310Z,1.83
2023-03-31T17:27:11.090Z,0.50
2023-03-31T17:29:42.776Z,0.87
2023-03-31T17:32:15.012Z,1.37
2023-03-31T17:34:50.360Z,2.43
2023-03-31T17:37:22.543Z,0.50
2023-03-31T17:39:55.295Z,0.33
2023-03-31T17:42:27.043Z,1.03
2023-03-31T17:44:59.084Z,1.10
2023-03-31T17:47:32.576Z,0.90
2023-03-31T17:50:04.966Z,1.33
2023-03-31T17:52:36.986Z,0.60
2023-03-31T17:55:09.288Z,1.33
2023-03-31T17:57:40.995Z,1.33
2023-03-31T18:00:15.109Z,1.57
2023-03-31T18:02:46.918Z,0.70
2023-03-31T18:05:18.751Z,1.53
2023-03-31T18:07:51.842Z,1.90
2023-03-31T18:10:23.623Z,1.63
2023-03-31T18:12:55.327Z,1.50
2023-03-31T18:15:27.058Z,1.63
2023-03-31T18:17:58.825Z,1.67
2023-03-31T18:20:30.618Z,2.50
2023-03-31T18:23:02.282Z,3.13
2023-03-31T18:25:34.302Z,2.93
2023-03-31T18:28:06.741Z,2.37
2023-03-31T18:30:38.936Z,2.47
2023-03-31T18:33:11.642Z,3.13
2023-03-31T18:35:44.690Z,1.53
2023-03-31T18:38:18.317Z,1.17
2023-03-31T18:40:52.427Z,0.80
2023-03-31T18:43:24.912Z,0.53
2023-03-31T18:45:58.518Z,1.13
2023-03-31T18:48:30.335Z,0.60
2023-03-31T18:51:02.665Z,2.50
2023-03-31T18:53:34.444Z,1.27
2023-03-31T18:56:06.356Z,0.67
2023-03-31T18:58:38.551Z,0.50
2023-03-31T19:01:10.611Z,1.37
2023-03-31T19:03:43.772Z,1.00
2023-03-31T19:06:17.557Z,1.13
2023-03-31T19:08:49.430Z,0.60
2023-03-31T19:11:21.181Z,2.73
2023-03-31T19:13:55.384Z,1.37
2023-03-31T19:16:27.455Z,3.60
2023-03-31T19:18:59.430Z,0.70
2023-03-31T19:21:33.117Z,3.03
2023-03-31T19:24:06.460Z,6.77
2023-03-31T19:26:38.479Z,1.43
2023-03-31T19:29:10.312Z,2.50
2023-03-31T19:31:42.318Z,4.47
2023-03-31T19:34:16.366Z,4.40
2023-03-31T19:36:48.252Z,4.73
2023-03-31T19:39:20.915Z,1.90
2023-03-31T19:41:52.603Z,1.80
2023-03-31T19:44:24.360Z,1.07
2023-03-31T19:46:58.377Z,0.87
2023-03-31T19:49:30.124Z,2.90
2023-03-31T19:52:01.844Z,1.63
2023-03-31T19:54:33.658Z,1.03
2023-03-31T19:57:05.530Z,3.70
2023-03-31T19:59:37.485Z,1.53
2023-03-31T20:02:12.710Z,0.37
2023-03-31T20:04:44.765Z,1.23
2023-03-31T20:07:16.659Z,0.97
2023-03-31T20:09:48.371Z,1.13
2023-03-31T20:12:20.072Z,0.93
2023-03-31T20:14:51.753Z,0.63
2023-03-31T20:17:23.445Z,3.03
2023-03-31T20:19:55.288Z,1.53
2023-03-31T20:22:27.043Z,0.67
2023-03-31T20:24:59.497Z,1.40
2023-03-31T20:27:31.232Z,1.13
2023-03-31T20:30:03.161Z,2.27
2023-03-31T20:32:35.240Z,0.40
2023-03-31T20:35:07.066Z,3.40
2023-03-31T20:37:38.849Z,0.53
2023-03-31T20:40:11.962Z,0.77
2023-03-31T20:42:43.723Z,1.33
2023-03-31T20:45:15.489Z,4.13
2023-03-31T20:47:47.249Z,0.27
2023-03-31T20:50:22.205Z,1.13
2023-03-31T20:52:53.953Z,0.30
2023-03-31T20:55:25.681Z,0.67
2023-03-31T20:57:57.485Z,1.23
2023-03-31T21:00:29.199Z,0.93
2023-03-31T21:03:03.023Z,0.80
2023-03-31T21:05:45.999Z,1.13
2023-03-31T21:08:17.748Z,1.17
2023-03-31T21:10:49.546Z,1.23
2023-03-31T21:13:21.401Z,0.40
2023-03-31T21:15:56.335Z,0.30
2023-03-31T21:18:29.814Z,1.27
2023-03-31T21:21:10.995Z,0.70
2023-03-31T21:23:42.746Z,1.07
2023-03-31T21:26:15.768Z,0.60
2023-03-31T21:28:50.437Z,2.07
2023-03-31T21:31:24.155Z,2.10
2023-03-31T21:33:57.600Z,3.23
2023-03-31T21:36:29.577Z,1.53
2023-03-31T21:39:01.293Z,1.20
2023-03-31T21:41:33.018Z,1.43
2023-03-31T21:44:04.824Z,0.30
2023-03-31T21:46:36.780Z,0.73
2023-03-31T21:49:09.579Z,0.50
2023-03-31T21:51:41.245Z,2.47
2023-03-31T21:54:12.977Z,1.23
2023-03-31T21:56:44.791Z,0.40
2023-03-31T21:59:16.537Z,0.90
2023-03-31T22:01:48.342Z,1.70
2023-03-31T22:04:20.537Z,0.37
2023-03-31T22:06:52.292Z,2.73
2023-03-31T22:09:24.258Z,3.27
2023-03-31T22:11:56.164Z,3.73
2023-03-31T22:14:27.887Z,0.40
2023-03-31T22:16:59.648Z,0.30
2023-03-31T22:19:31.936Z,0.70
2023-03-31T22:22:04.203Z,0.93
2023-03-31T22:24:36.288Z,2.50
2023-03-31T22:27:08.118Z,0.43
2023-03-31T22:29:40.556Z,2.13
2023-03-31T22:32:12.919Z,2.63
2023-03-31T22:34:44.625Z,1.23
2023-03-31T22:37:16.511Z,1.70
2023-03-31T22:39:48.893Z,3.30
2023-03-31T22:42:21.007Z,1.40
2023-03-31T22:44:52.734Z,2.03
2023-03-31T22:47:24.649Z,2.33
2023-03-31T22:49:56.353Z,1.33
2023-03-31T22:52:28.054Z,1.17
2023-03-31T22:54:59.830Z,0.20
2023-03-31T22:57:32.070Z,1.23
2023-03-31T23:00:04.306Z,2.13
2023-03-31T23:02:36.452Z,1.70
2023-03-31T23:05:08.774Z,3.87
2023-03-31T23:07:40.567Z,2.93
2023-03-31T23:10:12.326Z,1.03
2023-03-31T23:12:44.173Z,1.33
2023-03-31T23:15:16.172Z,1.53
2023-03-31T23:17:47.918Z,2.47
2023-03-31T23:20:19.663Z,0.90
2023-03-31T23:22:53.260Z,1.70
2023-03-31T23:25:25.775Z,1.50
2023-03-31T23:27:57.455Z,3.13
2023-03-31T23:30:29.272Z,3.60
2023-03-31T23:33:01.033Z,0.67
2023-03-31T23:35:33.112Z,0.47
2023-03-31T23:38:05.411Z,2.87
2023-03-31T23:40:37.635Z,1.53
2023-03-31T23:43:09.360Z,0.50
2023-03-31T23:45:41.249Z,0.43
2023-03-31T23:48:13.039Z,0.70
2023-03-31T23:50:45.176Z,1.80
2023-03-31T23:53:17.714Z,0.70
2023-03-31T23:55:57.914Z,0.67
2023-03-31T23:58:30.870Z,0.30
